createdAt,value
2022-11-30T00:01:44.644Z,91.68
2022-11-30T00:04:56.621Z,87.68
2022-11-30T00:08:09.601Z,93.42
2022-11-30T00:11:23.383Z,88.60
2022-11-30T00:14:35.235Z,98.00
2022-11-30T00:17:47.442Z,101.85
2022-11-30T00:20:59.545Z,102.93
2022-11-30T00:24:13.140Z,91.45
2022-11-30T00:27:25.225Z,83.35
2022-11-30T00:30:36.997Z,83.55
2022-11-30T00:33:49.563Z,82.68
2022-11-30T00:37:01.296Z,84.70
2022-11-30T00:40:16.302Z,73.58
2022-11-30T00:43:28.027Z,64.68
2022-11-30T00:46:39.692Z,61.55
2022-11-30T00:49:51.469Z,66.95
2022-11-30T00:53:03.110Z,65.75
2022-11-30T00:56:16.314Z,68.20
2022-11-30T00:59:28.112Z,70.28
2022-11-30T01:02:40.381Z,66.40
2022-11-30T01:05:52.186Z,60.18
2022-11-30T01:09:05.024Z,67.33
2022-11-30T01:12:16.687Z,68.63
2022-11-30T01:15:28.917Z,65.70
2022-11-30T01:18:43.390Z,70.80
2022-11-30T01:21:55.005Z,64.75
2022-11-30T01:25:06.995Z,71.93
2022-11-30T01:28:18.866Z,69.53
2022-11-30T01:31:31.378Z,62.70
2022-11-30T01:34:43.008Z,65.80
2022-11-30T01:37:54.789Z,65.60
2022-11-30T01:41:06.953Z,63.73
2022-11-30T01:44:54.409Z,66.90
2022-11-30T01:48:06.365Z,61.48
2022-11-30T01:51:18.173Z,61.13
2022-11-30T01:54:36.182Z,63.73
2022-11-30T01:57:52.841Z,62.53
2022-11-30T02:01:06.081Z,60.68
2022-11-30T02:04:22.628Z,64.93
2022-11-30T02:07:34.813Z,60.90
2022-11-30T02:10:51.790Z,64.60
2022-11-30T02:14:18.270Z,61.03
2022-11-30T02:17:36.046Z,61.50
2022-11-30T02:21:11.020Z,61.98
2022-11-30T02:24:47.248Z,70.08
2022-11-30T02:28:13.570Z,63.35
2022-11-30T02:31:31.123Z,56.35
2022-11-30T02:34:45.213Z,59.18
2022-11-30T02:38:00.594Z,56.23
2022-11-30T02:41:12.711Z,58.63
2022-11-30T02:44:26.898Z,58.30
2022-11-30T02:47:44.994Z,56.50
2022-11-30T02:51:00.744Z,59.63
2022-11-30T02:54:14.474Z,55.13
2022-11-30T02:57:26.248Z,56.18
2022-11-30T03:00:38.129Z,61.13
2022-11-30T03:03:49.968Z,58.80
2022-11-30T03:07:01.703Z,54.05
2022-11-30T03:10:15.704Z,53.85
2022-11-30T03:13:27.403Z,55.63
2022-11-30T03:16:39.325Z,57.93
2022-11-30T03:19:51.003Z,51.63
2022-11-30T03:23:04.953Z,43.10
2022-11-30T03:26:17.185Z,47.38
2022-11-30T03:29:29.246Z,53.78
2022-11-30T03:32:41.019Z,57.48
2022-11-30T03:35:53.463Z,52.68
2022-11-30T03:39:05.486Z,49.50
2022-11-30T03:42:17.275Z,51.45
2022-11-30T03:45:28.986Z,51.35
2022-11-30T03:48:41.244Z,49.00
2022-11-30T03:51:52.989Z,43.85
2022-11-30T03:55:04.676Z,48.58
2022-11-30T03:58:16.524Z,46.35
2022-11-30T04:01:29.335Z,44.78
2022-11-30T04:04:41.077Z,48.78
2022-11-30T04:07:52.822Z,44.28
2022-11-30T04:11:07.037Z,44.25
2022-11-30T04:14:18.684Z,42.50
2022-11-30T04:17:30.324Z,43.50
2022-11-30T04:20:42.032Z,43.70
2022-11-30T04:23:53.916Z,44.45
2022-11-30T04:27:05.608Z,43.98
2022-11-30T04:30:20.042Z,43.78
2022-11-30T04:33:32.570Z,42.63
2022-11-30T04:36:44.244Z,42.45
2022-11-30T04:39:56.088Z,42.03
2022-11-30T04:43:07.834Z,39.35
2022-11-30T04:46:19.873Z,39.73
2022-11-30T04:49:31.652Z,38.68
2022-11-30T04:52:43.511Z,39.08
2022-11-30T04:55:55.127Z,40.33
2022-11-30T04:59:08.669Z,40.45
2022-11-30T05:02:20.509Z,41.40
2022-11-30T05:05:32.604Z,39.10
2022-11-30T05:08:44.241Z,38.80
2022-11-30T05:11:55.996Z,41.18
2022-11-30T05:15:08.147Z,42.00
2022-11-30T05:18:19.846Z,40.53
2022-11-30T05:21:31.677Z,40.50
2022-11-30T05:24:43.339Z,42.95
2022-11-30T05:27:55.086Z,44.30
2022-11-30T05:31:10.404Z,42.53
2022-11-30T05:34:22.514Z,43.63
2022-11-30T05:37:34.411Z,37.85
2022-11-30T05:40:46.043Z,39.43
2022-11-30T05:43:57.755Z,39.08
2022-11-30T05:47:11.935Z,41.75
2022-11-30T05:50:24.494Z,40.88
2022-11-30T05:53:36.557Z,40.53
2022-11-30T05:56:53.111Z,40.00
2022-11-30T06:00:03.130Z,37.00
2022-11-30T06:03:16.796Z,36.63
2022-11-30T06:06:29.420Z,38.45
2022-11-30T06:09:41.096Z,35.73
2022-11-30T06:12:53.063Z,36.93
2022-11-30T06:16:07.605Z,36.00
2022-11-30T06:19:19.633Z,33.35
2022-11-30T06:22:31.402Z,34.35
2022-11-30T06:25:43.129Z,35.18
2022-11-30T06:28:55.046Z,45.58
2022-11-30T06:32:07.013Z,40.83
2022-11-30T06:35:19.144Z,45.50
2022-11-30T06:38:31.891Z,36.30
2022-11-30T06:41:43.851Z,35.63
2022-11-30T06:44:55.559Z,39.03
2022-11-30T06:48:07.448Z,39.13
2022-11-30T06:51:19.517Z,35.45
2022-11-30T06:54:31.410Z,35.10
2022-11-30T06:57:43.170Z,33.08
2022-11-30T07:00:55.401Z,54.98
2022-11-30T07:04:07.239Z,216.60
2022-11-30T07:07:19.303Z,43.98
2022-11-30T07:10:31.582Z,37.43
2022-11-30T07:13:43.965Z,34.30
2022-11-30T07:16:55.760Z,36.20
2022-11-30T07:20:08.413Z,41.40
2022-11-30T07:23:35.223Z,35.60
2022-11-30T07:26:47.252Z,35.70
2022-11-30T07:29:59.815Z,37.43
2022-11-30T07:33:11.771Z,79.40
2022-11-30T07:36:26.134Z,49.55
2022-11-30T07:39:38.195Z,37.25
2022-11-30T07:42:49.864Z,38.03
2022-11-30T07:46:02.306Z,38.50
2022-11-30T07:49:15.589Z,38.88
2022-11-30T07:52:27.418Z,33.05
2022-11-30T07:55:39.966Z,38.15
2022-11-30T07:58:52.811Z,33.10
2022-11-30T08:02:04.822Z,33.73
2022-11-30T08:05:17.470Z,32.25
2022-11-30T08:08:29.295Z,36.85
2022-11-30T08:11:42.142Z,74.63
2022-11-30T08:15:18.760Z,54.83
2022-11-30T08:18:08.651Z,35.68
2022-11-30T08:21:23.030Z,35.25
2022-11-30T08:24:34.875Z,32.28
2022-11-30T08:27:46.810Z,38.15
2022-11-30T08:30:58.660Z,36.30
2022-11-30T08:34:14.166Z,33.60
2022-11-30T08:37:26.379Z,33.08
2022-11-30T08:40:38.302Z,35.53
2022-11-30T08:43:50.909Z,33.58
2022-11-30T08:47:03.124Z,51.15
2022-11-30T08:50:16.684Z,40.65
2022-11-30T08:53:28.508Z,32.50
2022-11-30T08:56:40.406Z,35.63
2022-11-30T08:59:52.668Z,35.88
2022-11-30T09:03:04.387Z,31.95
2022-11-30T09:06:19.468Z,31.03
2022-11-30T09:09:31.232Z,31.73
2022-11-30T09:12:44.621Z,31.45
2022-11-30T09:16:02.743Z,31.30
2022-11-30T09:19:14.997Z,32.28
2022-11-30T09:22:26.741Z,33.98
2022-11-30T09:25:38.420Z,34.53
2022-11-30T09:28:51.729Z,30.33
2022-11-30T09:32:03.407Z,32.38
2022-11-30T09:35:15.733Z,38.03
2022-11-30T09:38:27.681Z,37.03
2022-11-30T09:42:14.540Z,32.35
2022-11-30T09:45:32.564Z,53.35
2022-11-30T09:49:03.911Z,41.38
2022-11-30T09:52:22.903Z,41.83
2022-11-30T09:55:39.304Z,39.10
2022-11-30T09:58:57.562Z,39.68
2022-11-30T10:02:18.559Z,36.68
2022-11-30T10:05:35.459Z,38.75
2022-11-30T10:09:00.723Z,42.65
2022-11-30T10:12:17.934Z,42.68
2022-11-30T10:15:44.410Z,40.35
2022-11-30T10:19:02.643Z,37.13
2022-11-30T10:22:23.025Z,40.15
2022-11-30T10:25:41.237Z,42.93
2022-11-30T10:28:58.799Z,38.20
2022-11-30T10:32:20.629Z,42.03
2022-11-30T10:35:41.596Z,36.18
2022-11-30T10:38:58.555Z,38.23
2022-11-30T10:45:27.489Z,35.40
2022-11-30T10:48:44.571Z,37.70
2022-11-30T10:52:01.254Z,34.63
2022-11-30T10:55:23.495Z,32.88
2022-11-30T10:58:40.977Z,34.45
2022-11-30T11:01:53.605Z,37.00
2022-11-30T11:05:24.142Z,37.13
2022-11-30T11:08:36.290Z,34.85
2022-11-30T11:11:48.661Z,38.90
2022-11-30T11:15:19.396Z,37.88
2022-11-30T11:18:33.331Z,42.15
2022-11-30T11:21:46.677Z,39.68
2022-11-30T11:25:00.483Z,37.90
2022-11-30T11:28:20.278Z,40.68
2022-11-30T11:31:44.358Z,42.35
2022-11-30T11:34:57.867Z,43.48
2022-11-30T11:38:13.234Z,46.85
2022-11-30T11:41:30.484Z,43.58
2022-11-30T11:44:42.449Z,40.95
2022-11-30T11:48:01.957Z,42.25
2022-11-30T11:51:15.964Z,42.30
2022-11-30T11:54:34.991Z,43.58
2022-11-30T11:57:51.381Z,44.55
2022-11-30T12:01:38.020Z,41.63
2022-11-30T12:07:53.751Z,42.85
2022-11-30T12:11:09.607Z,39.10
2022-11-30T12:14:23.705Z,39.10
2022-11-30T12:17:50.413Z,35.90
2022-11-30T12:21:06.936Z,34.38
2022-11-30T12:24:41.233Z,41.15
2022-11-30T12:28:00.782Z,42.65
2022-11-30T12:31:20.662Z,37.83
2022-11-30T12:34:42.076Z,45.98
2022-11-30T12:38:03.306Z,39.28
2022-11-30T12:41:39.413Z,41.20
2022-11-30T12:44:59.649Z,44.10
2022-11-30T12:48:18.981Z,41.73
2022-11-30T12:51:37.322Z,41.13
2022-11-30T12:54:55.106Z,40.78
2022-11-30T12:58:12.582Z,38.83
2022-11-30T13:01:47.200Z,43.13
2022-11-30T13:05:05.108Z,39.85
2022-11-30T13:08:24.369Z,41.40
2022-11-30T13:11:42.226Z,43.30
2022-11-30T13:14:59.752Z,47.88
2022-11-30T13:18:17.832Z,56.63
2022-11-30T13:21:36.547Z,43.00
2022-11-30T13:24:54.203Z,45.10
2022-11-30T13:28:13.192Z,49.18
2022-11-30T13:31:30.323Z,44.93
2022-11-30T13:34:42.629Z,49.18
2022-11-30T13:38:35.203Z,40.75
2022-11-30T13:41:27.158Z,43.18
2022-11-30T13:44:41.832Z,42.33
2022-11-30T13:47:57.357Z,50.48
2022-11-30T13:51:09.456Z,45.20
2022-11-30T13:54:46.744Z,44.73
2022-11-30T13:58:15.651Z,44.50
2022-11-30T14:01:36.217Z,53.55
2022-11-30T14:04:53.427Z,52.78
2022-11-30T14:11:50.042Z,50.65
2022-11-30T14:15:02.104Z,48.15
2022-11-30T14:18:23.589Z,51.98
2022-11-30T14:21:39.018Z,45.83
2022-11-30T14:24:53.166Z,46.98
2022-11-30T14:28:06.628Z,45.40
2022-11-30T14:31:25.307Z,43.90
2022-11-30T14:34:41.608Z,39.15
2022-11-30T14:37:57.711Z,39.57
2022-11-30T14:41:09.749Z,47.27
2022-11-30T14:44:21.965Z,44.73
2022-11-30T14:47:36.843Z,48.78
2022-11-30T14:50:55.313Z,52.10
2022-11-30T14:54:16.248Z,60.75
2022-11-30T14:57:34.222Z,84.67
2022-11-30T15:00:49.990Z,45.83
2022-11-30T15:04:07.989Z,47.93
2022-11-30T15:07:22.977Z,52.00
2022-11-30T15:10:38.837Z,50.48
2022-11-30T15:13:54.400Z,50.50
2022-11-30T15:17:06.800Z,50.38
2022-11-30T15:20:33.447Z,51.68
2022-11-30T15:23:50.856Z,55.80
2022-11-30T15:27:10.370Z,52.90
2022-11-30T15:30:23.658Z,43.85
2022-11-30T15:33:40.965Z,44.68
2022-11-30T15:36:53.774Z,43.10
2022-11-30T15:40:10.927Z,49.90
2022-11-30T15:43:30.887Z,49.75
2022-11-30T15:46:58.212Z,48.98
2022-11-30T15:50:32.419Z,45.63
2022-11-30T15:53:57.565Z,50.08
2022-11-30T15:57:09.662Z,48.55
2022-11-30T16:00:29.301Z,44.10
2022-11-30T16:04:00.334Z,48.03
2022-11-30T16:07:22.210Z,38.78
2022-11-30T16:10:39.689Z,51.18
2022-11-30T16:13:54.226Z,33.70
2022-11-30T16:17:09.105Z,36.88
2022-11-30T16:20:21.979Z,39.88
2022-11-30T16:23:34.867Z,32.43
2022-11-30T16:26:51.742Z,32.10
2022-11-30T16:30:01.436Z,30.10
2022-11-30T16:33:18.220Z,31.40
2022-11-30T16:36:30.845Z,34.80
2022-11-30T16:39:42.935Z,34.43
2022-11-30T16:42:56.022Z,28.43
2022-11-30T16:46:12.418Z,30.95
2022-11-30T16:49:24.506Z,32.93
2022-11-30T16:52:36.193Z,32.98
2022-11-30T16:55:48.295Z,30.75
2022-11-30T16:59:00.390Z,30.05
2022-11-30T17:02:21.334Z,30.15
2022-11-30T17:05:33.634Z,31.80
2022-11-30T17:08:45.910Z,31.70
2022-11-30T17:11:58.440Z,42.45
2022-11-30T17:15:14.527Z,43.55
2022-11-30T17:18:26.541Z,41.93
2022-11-30T17:21:42.320Z,41.88
2022-11-30T17:24:54.521Z,46.63
2022-11-30T17:28:06.439Z,54.80
2022-11-30T17:31:28.589Z,53.68
2022-11-30T17:34:40.763Z,51.50
2022-11-30T17:37:52.635Z,57.18
2022-11-30T17:41:04.773Z,57.83
2022-11-30T17:44:17.192Z,57.45
2022-11-30T17:47:29.129Z,57.88
2022-11-30T17:50:43.439Z,55.08
2022-11-30T17:53:55.495Z,61.63
2022-11-30T17:57:07.441Z,56.05
2022-11-30T18:00:22.524Z,54.63
2022-11-30T18:03:34.385Z,54.35
2022-11-30T18:06:46.284Z,54.35
2022-11-30T18:09:58.855Z,57.90
2022-11-30T18:13:10.850Z,58.23
2022-11-30T18:16:26.075Z,61.10
2022-11-30T18:19:38.590Z,58.98
2022-11-30T18:22:50.597Z,56.45
2022-11-30T18:26:02.515Z,55.55
2022-11-30T18:29:16.009Z,50.23
2022-11-30T18:32:28.579Z,56.00
2022-11-30T18:35:40.901Z,56.63
2022-11-30T18:38:52.938Z,55.80
2022-11-30T18:42:04.742Z,50.13
2022-11-30T18:45:17.605Z,58.53
2022-11-30T18:48:29.425Z,58.78
2022-11-30T18:51:41.878Z,56.20
2022-11-30T18:54:53.890Z,58.65
2022-11-30T18:58:05.721Z,56.03
2022-11-30T19:01:21.916Z,52.73
2022-11-30T19:04:34.239Z,55.38
2022-11-30T19:07:46.456Z,57.38
2022-11-30T19:11:02.114Z,57.10
2022-11-30T19:14:14.859Z,75.53
2022-11-30T19:17:27.051Z,53.78
2022-11-30T19:20:46.545Z,57.70
2022-11-30T19:23:59.756Z,63.75
2022-11-30T19:27:11.654Z,59.43
2022-11-30T19:30:26.285Z,60.25
2022-11-30T19:33:40.808Z,53.68
2022-11-30T19:36:52.808Z,56.83
2022-11-30T19:40:05.116Z,59.48
2022-11-30T19:43:17.047Z,53.23
2022-11-30T19:46:30.771Z,53.20
2022-11-30T19:49:42.963Z,50.13
2022-11-30T19:52:55.605Z,52.50
2022-11-30T19:56:12.491Z,49.13
2022-11-30T20:02:35.164Z,46.38
2022-11-30T20:05:53.506Z,45.78
2022-11-30T20:09:05.874Z,46.50
2022-11-30T20:12:17.880Z,46.28
2022-11-30T20:15:31.313Z,45.68
2022-11-30T20:18:46.377Z,44.30
2022-11-30T20:22:00.575Z,43.28
2022-11-30T20:25:16.726Z,42.33
2022-11-30T20:28:28.682Z,55.53
2022-11-30T20:31:43.024Z,46.43
2022-11-30T20:34:54.938Z,41.88
2022-11-30T20:38:07.226Z,42.93
2022-11-30T20:41:22.419Z,44.08
2022-11-30T20:44:34.335Z,49.15
2022-11-30T20:47:46.284Z,44.25
2022-11-30T20:51:28.709Z,42.48
2022-11-30T20:54:15.910Z,44.83
2022-11-30T20:57:28.301Z,43.98
2022-11-30T21:00:40.393Z,49.83
2022-11-30T21:03:53.377Z,43.48
2022-11-30T21:07:05.337Z,49.85
2022-11-30T21:10:20.888Z,47.38
2022-11-30T21:13:32.793Z,47.73
2022-11-30T21:16:45.486Z,45.05
2022-11-30T21:19:57.278Z,45.65
2022-11-30T21:23:09.048Z,51.20
2022-11-30T21:26:25.268Z,51.13
2022-11-30T21:29:37.279Z,48.13
2022-11-30T21:32:49.185Z,49.40
2022-11-30T21:36:02.027Z,48.48
2022-11-30T21:39:16.423Z,52.80
2022-11-30T21:42:28.668Z,47.60
2022-11-30T21:45:40.510Z,49.58
2022-11-30T21:48:54.433Z,48.45
2022-11-30T21:52:06.216Z,48.65
2022-11-30T21:55:18.642Z,47.40
2022-11-30T21:58:30.826Z,50.65
2022-11-30T22:01:46.625Z,51.98
2022-11-30T22:04:59.251Z,47.88
2022-11-30T22:08:13.899Z,51.88
2022-11-30T22:11:27.764Z,56.95
2022-11-30T22:14:40.524Z,56.25
2022-11-30T22:17:52.587Z,62.83
2022-11-30T22:21:13.251Z,56.43
2022-11-30T22:24:25.286Z,56.13
2022-11-30T22:27:37.120Z,55.78
2022-11-30T22:30:49.224Z,55.78
2022-11-30T22:34:01.695Z,56.73
2022-11-30T22:37:13.700Z,57.45
2022-11-30T22:40:25.726Z,57.05
2022-11-30T22:43:38.878Z,55.43
2022-11-30T22:46:50.964Z,59.35
2022-11-30T22:50:02.948Z,55.10
2022-11-30T22:53:14.800Z,57.75
2022-11-30T22:56:30.543Z,66.20
2022-11-30T22:59:42.515Z,57.38
2022-11-30T23:02:56.096Z,58.88
2022-11-30T23:06:07.966Z,54.60
2022-11-30T23:09:22.719Z,59.58
2022-11-30T23:12:57.870Z,59.90
2022-11-30T23:15:49.671Z,54.48
2022-11-30T23:19:02.768Z,56.98
2022-11-30T23:22:14.830Z,54.88
2022-11-30T23:25:26.825Z,61.13
2022-11-30T23:28:40.654Z,60.50
2022-11-30T23:31:53.678Z,59.10
2022-11-30T23:35:05.752Z,54.98
2022-11-30T23:38:17.724Z,55.18
2022-11-30T23:41:31.283Z,56.98
2022-11-30T23:44:43.487Z,54.00
2022-11-30T23:47:55.209Z,55.33
2022-11-30T23:51:07.906Z,62.20
2022-11-30T23:54:19.606Z,57.10
2022-11-30T23:57:31.636Z,57.48
